sensor_id;sensor_type;location;lat;lon;timestamp;noise_LAeq;noise_LA_min;noise_LA_max;noise_LA01;noise_LA95
18377;Laerm;9315;52.624;13.544;2024-01-30T00:00:37;43.60;38.57;51.22;;
18377;Laerm;9315;52.624;13.544;2024-01-30T00:03:05;61.59;39.19;79.00;;
18377;Laerm;9315;52.624;13.544;2024-01-30T00:05:33;59.47;42.48;76.78;;
18377;Laerm;9315;52.624;13.544;2024-01-30T00:08:00;48.36;40.78;63.69;;
18377;Laerm;9315;52.624;13.544;2024-01-30T00:10:28;59.23;40.95;75.50;;
18377;Laerm;9315;52.624;13.544;2024-01-30T00:12:55;47.53;41.71;59.78;;
18377;Laerm;9315;52.624;13.544;2024-01-30T00:15:24;47.04;40.44;57.65;;
18377;Laerm;9315;52.624;13.544;2024-01-30T00:17:51;63.57;42.71;77.56;;
18377;Laerm;9315;52.624;13.544;2024-01-30T00:20:21;56.86;41.50;74.82;;
18377;Laerm;9315;52.624;13.544;2024-01-30T00:22:49;59.96;41.49;78.88;;
18377;Laerm;9315;52.624;13.544;2024-01-30T00:25:16;45.88;40.84;53.66;;
18377;Laerm;9315;52.624;13.544;2024-01-30T00:27:44;56.08;38.67;74.42;;
18377;Laerm;9315;52.624;13.544;2024-01-30T00:30:12;58.74;41.65;78.28;;
18377;Laerm;9315;52.624;13.544;2024-01-30T00:32:40;42.04;36.65;51.08;;
18377;Laerm;9315;52.624;13.544;2024-01-30T00:35:07;58.31;38.56;74.96;;
18377;Laerm;9315;52.624;13.544;2024-01-30T00:37:37;44.28;41.32;48.92;;
18377;Laerm;9315;52.624;13.544;2024-01-30T00:40:05;43.71;39.18;51.15;;
18377;Laerm;9315;52.624;13.544;2024-01-30T00:42:33;54.27;39.33;70.10;;
18377;Laerm;9315;52.624;13.544;2024-01-30T00:45:01;53.41;41.37;69.34;;
18377;Laerm;9315;52.624;13.544;2024-01-30T00:47:28;57.60;39.62;74.30;;
18377;Laerm;9315;52.624;13.544;2024-01-30T00:49:56;56.95;40.77;76.32;;
18377;Laerm;9315;52.624;13.544;2024-01-30T00:52:23;58.53;39.64;76.02;;
18377;Laerm;9315;52.624;13.544;2024-01-30T00:54:51;61.64;40.64;78.17;;
18377;Laerm;9315;52.624;13.544;2024-01-30T00:57:18;55.47;41.88;70.71;;
18377;Laerm;9315;52.624;13.544;2024-01-30T00:59:46;56.20;41.89;72.17;;
18377;Laerm;9315;52.624;13.544;2024-01-30T01:02:13;58.43;40.26;76.22;;
18377;Laerm;9315;52.624;13.544;2024-01-30T01:04:42;55.24;40.37;71.30;;
18377;Laerm;9315;52.624;13.544;2024-01-30T01:07:10;55.76;41.16;71.54;;
18377;Laerm;9315;52.624;13.544;2024-01-30T01:09:38;46.78;42.38;52.59;;
18377;Laerm;9315;52.624;13.544;2024-01-30T01:12:06;46.04;42.24;51.57;;
18377;Laerm;9315;52.624;13.544;2024-01-30T01:14:34;53.19;39.82;69.41;;
18377;Laerm;9315;52.624;13.544;2024-01-30T01:17:01;55.61;46.01;72.98;;
18377;Laerm;9315;52.624;13.544;2024-01-30T01:19:29;56.58;43.24;72.58;;
18377;Laerm;9315;52.624;13.544;2024-01-30T01:21:56;47.11;42.93;51.57;;
18377;Laerm;9315;52.624;13.544;2024-01-30T01:24:24;47.22;42.29;53.75;;
18377;Laerm;9315;52.624;13.544;2024-01-30T01:26:51;45.83;40.21;52.36;;
18377;Laerm;9315;52.624;13.544;2024-01-30T01:29:19;51.35;42.28;68.41;;
18377;Laerm;9315;52.624;13.544;2024-01-30T01:31:48;56.49;42.36;74.75;;
18377;Laerm;9315;52.624;13.544;2024-01-30T01:34:15;46.75;42.74;51.27;;
18377;Laerm;9315;52.624;13.544;2024-01-30T01:36:43;47.16;41.52;59.87;;
18377;Laerm;9315;52.624;13.544;2024-01-30T01:39:10;50.62;43.69;64.63;;
18377;Laerm;9315;52.624;13.544;2024-01-30T01:41:38;44.67;38.83;52.17;;
18377;Laerm;9315;52.624;13.544;2024-01-30T01:44:05;46.88;41.49;55.75;;
18377;Laerm;9315;52.624;13.544;2024-01-30T01:46:34;55.59;42.72;72.09;;
18377;Laerm;9315;52.624;13.544;2024-01-30T01:49:05;46.95;42.65;53.30;;
18377;Laerm;9315;52.624;13.544;2024-01-30T01:51:35;46.66;41.07;54.27;;
18377;Laerm;9315;52.624;13.544;2024-01-30T01:54:07;45.79;40.71;52.76;;
18377;Laerm;9315;52.624;13.544;2024-01-30T01:56:35;45.84;40.53;53.90;;
18377;Laerm;9315;52.624;13.544;2024-01-30T01:59:08;56.60;44.39;72.40;;
18377;Laerm;9315;52.624;13.544;2024-01-30T02:01:37;47.94;42.29;54.58;;
18377;Laerm;9315;52.624;13.544;2024-01-30T02:04:07;58.36;40.34;75.06;;
18377;Laerm;9315;52.624;13.544;2024-01-30T02:06:35;56.27;42.90;72.68;;
18377;Laerm;9315;52.624;13.544;2024-01-30T02:09:03;56.83;42.07;72.61;;
18377;Laerm;9315;52.624;13.544;2024-01-30T02:11:32;48.57;43.84;56.11;;
18377;Laerm;9315;52.624;13.544;2024-01-30T02:14:03;53.60;41.95;69.75;;
18377;Laerm;9315;52.624;13.544;2024-01-30T02:16:32;56.97;40.45;75.60;;
18377;Laerm;9315;52.624;13.544;2024-01-30T02:18:59;58.79;42.26;76.84;;
18377;Laerm;9315;52.624;13.544;2024-01-30T02:21:27;62.16;43.06;78.36;;
18377;Laerm;9315;52.624;13.544;2024-01-30T02:23:55;59.32;40.71;72.29;;
18377;Laerm;9315;52.624;13.544;2024-01-30T02:26:23;49.32;41.70;56.92;;
18377;Laerm;9315;52.624;13.544;2024-01-30T02:28:50;48.50;41.56;61.55;;
18377;Laerm;9315;52.624;13.544;2024-01-30T02:31:18;58.86;41.36;74.67;;
18377;Laerm;9315;52.624;13.544;2024-01-30T02:33:45;61.59;43.01;76.63;;
18377;Laerm;9315;52.624;13.544;2024-01-30T02:36:13;61.29;42.99;76.64;;
18377;Laerm;9315;52.624;13.544;2024-01-30T02:38:42;53.01;43.82;66.77;;
18377;Laerm;9315;52.624;13.544;2024-01-30T02:41:10;59.56;44.63;74.37;;
18377;Laerm;9315;52.624;13.544;2024-01-30T02:43:37;57.67;44.57;72.49;;
18377;Laerm;9315;52.624;13.544;2024-01-30T02:46:05;56.16;44.29;72.26;;
18377;Laerm;9315;52.624;13.544;2024-01-30T02:48:32;46.53;42.81;51.54;;
18377;Laerm;9315;52.624;13.544;2024-01-30T02:51:00;46.28;41.22;51.70;;
18377;Laerm;9315;52.624;13.544;2024-01-30T02:53:27;59.35;41.57;76.84;;
18377;Laerm;9315;52.624;13.544;2024-01-30T02:55:55;63.66;41.57;76.54;;
18377;Laerm;9315;52.624;13.544;2024-01-30T02:58:22;64.42;44.32;79.63;;
18377;Laerm;9315;52.624;13.544;2024-01-30T03:00:50;61.84;43.62;74.74;;
18377;Laerm;9315;52.624;13.544;2024-01-30T03:03:17;59.43;44.71;76.61;;
18377;Laerm;9315;52.624;13.544;2024-01-30T03:05:45;60.76;43.45;74.64;;
18377;Laerm;9315;52.624;13.544;2024-01-30T03:08:12;58.01;44.70;73.19;;
18377;Laerm;9315;52.624;13.544;2024-01-30T03:10:40;56.44;45.02;69.87;;
18377;Laerm;9315;52.624;13.544;2024-01-30T03:13:07;47.11;42.02;53.84;;
18377;Laerm;9315;52.624;13.544;2024-01-30T03:15:35;61.76;46.66;73.74;;
18377;Laerm;9315;52.624;13.544;2024-01-30T03:18:03;62.94;44.17;73.89;;
18377;Laerm;9315;52.624;13.544;2024-01-30T03:20:33;59.16;46.47;75.12;;
18377;Laerm;9315;52.624;13.544;2024-01-30T03:23:01;55.63;41.90;71.63;;
18377;Laerm;9315;52.624;13.544;2024-01-30T03:25:28;60.20;45.45;74.31;;
18377;Laerm;9315;52.624;13.544;2024-01-30T03:27:56;60.20;46.08;75.85;;
18377;Laerm;9315;52.624;13.544;2024-01-30T03:30:23;63.01;46.46;74.27;;
18377;Laerm;9315;52.624;13.544;2024-01-30T03:32:50;63.01;44.09;73.69;;
18377;Laerm;9315;52.624;13.544;2024-01-30T03:35:19;64.37;47.76;77.54;;
18377;Laerm;9315;52.624;13.544;2024-01-30T03:37:47;63.68;49.07;77.00;;
18377;Laerm;9315;52.624;13.544;2024-01-30T03:40:14;63.77;46.50;74.85;;
18377;Laerm;9315;52.624;13.544;2024-01-30T03:42:42;61.53;46.34;73.42;;
18377;Laerm;9315;52.624;13.544;2024-01-30T03:45:10;64.40;47.27;78.02;;
18377;Laerm;9315;52.624;13.544;2024-01-30T03:47:37;59.93;44.86;72.35;;
18377;Laerm;9315;52.624;13.544;2024-01-30T03:50:05;59.78;47.16;71.85;;
18377;Laerm;9315;52.624;13.544;2024-01-30T03:52:33;65.24;48.24;77.97;;
18377;Laerm;9315;52.624;13.544;2024-01-30T03:55:00;64.16;45.33;75.34;;
18377;Laerm;9315;52.624;13.544;2024-01-30T03:57:28;64.62;48.34;75.23;;
18377;Laerm;9315;52.624;13.544;2024-01-30T03:59:55;65.04;48.21;75.43;;
18377;Laerm;9315;52.624;13.544;2024-01-30T04:02:26;66.23;48.09;78.24;;
18377;Laerm;9315;52.624;13.544;2024-01-30T04:04:53;65.21;48.67;75.20;;
18377;Laerm;9315;52.624;13.544;2024-01-30T04:07:21;65.94;49.27;77.63;;
18377;Laerm;9315;52.624;13.544;2024-01-30T04:09:50;66.16;49.53;76.53;;
18377;Laerm;9315;52.624;13.544;2024-01-30T04:12:18;66.84;49.97;76.10;;
18377;Laerm;9315;52.624;13.544;2024-01-30T04:14:45;64.93;50.46;75.03;;
18377;Laerm;9315;52.624;13.544;2024-01-30T04:17:12;68.06;51.34;75.33;;
18377;Laerm;9315;52.624;13.544;2024-01-30T04:19:41;68.57;52.24;77.03;;
18377;Laerm;9315;52.624;13.544;2024-01-30T04:22:08;65.25;51.71;75.36;;
18377;Laerm;9315;52.624;13.544;2024-01-30T04:24:36;68.65;51.39;77.66;;
18377;Laerm;9315;52.624;13.544;2024-01-30T04:27:04;67.38;51.15;77.01;;
18377;Laerm;9315;52.624;13.544;2024-01-30T04:29:31;66.60;51.70;77.21;;
18377;Laerm;9315;52.624;13.544;2024-01-30T04:32:00;68.24;52.01;76.79;;
18377;Laerm;9315;52.624;13.544;2024-01-30T04:34:27;67.43;51.69;77.11;;
18377;Laerm;9315;52.624;13.544;2024-01-30T04:36:55;66.94;52.13;76.92;;
18377;Laerm;9315;52.624;13.544;2024-01-30T04:39:23;65.62;51.76;77.42;;
18377;Laerm;9315;52.624;13.544;2024-01-30T04:41:50;69.25;55.14;78.78;;
18377;Laerm;9315;52.624;13.544;2024-01-30T04:44:18;67.90;53.68;76.00;;
18377;Laerm;9315;52.624;13.544;2024-01-30T04:46:46;69.06;53.40;78.02;;
18377;Laerm;9315;52.624;13.544;2024-01-30T04:49:14;67.31;52.17;76.51;;
18377;Laerm;9315;52.624;13.544;2024-01-30T04:51:41;68.48;52.05;77.05;;
18377;Laerm;9315;52.624;13.544;2024-01-30T04:54:09;65.52;51.12;76.98;;
18377;Laerm;9315;52.624;13.544;2024-01-30T04:56:36;69.71;52.56;82.99;;
18377;Laerm;9315;52.624;13.544;2024-01-30T04:59:04;67.52;52.68;78.27;;
18377;Laerm;9315;52.624;13.544;2024-01-30T05:01:31;69.25;53.07;76.94;;
18377;Laerm;9315;52.624;13.544;2024-01-30T05:03:59;68.68;50.58;78.54;;
18377;Laerm;9315;52.624;13.544;2024-01-30T05:06:29;69.18;52.77;75.37;;
18377;Laerm;9315;52.624;13.544;2024-01-30T05:08:57;69.53;51.59;81.04;;
18377;Laerm;9315;52.624;13.544;2024-01-30T05:11:24;69.47;50.79;79.43;;
18377;Laerm;9315;52.624;13.544;2024-01-30T05:13:52;70.71;54.13;81.36;;
18377;Laerm;9315;52.624;13.544;2024-01-30T05:16:19;66.80;52.82;75.42;;
18377;Laerm;9315;52.624;13.544;2024-01-30T05:18:47;70.38;53.35;78.84;;
18377;Laerm;9315;52.624;13.544;2024-01-30T05:21:14;69.11;53.17;79.36;;
18377;Laerm;9315;52.624;13.544;2024-01-30T05:23:42;69.94;55.56;78.92;;
18377;Laerm;9315;52.624;13.544;2024-01-30T05:26:09;69.67;53.47;79.50;;
18377;Laerm;9315;52.624;13.544;2024-01-30T05:28:39;69.42;54.67;78.09;;
18377;Laerm;9315;52.624;13.544;2024-01-30T05:31:07;69.55;54.06;77.36;;
18377;Laerm;9315;52.624;13.544;2024-01-30T05:33:35;70.92;55.38;80.21;;
18377;Laerm;9315;52.624;13.544;2024-01-30T05:36:03;70.59;55.50;77.79;;
18377;Laerm;9315;52.624;13.544;2024-01-30T05:38:31;66.96;54.11;76.43;;
18377;Laerm;9315;52.624;13.544;2024-01-30T05:40:59;69.24;54.15;76.31;;
18377;Laerm;9315;52.624;13.544;2024-01-30T05:43:26;72.43;57.08;81.06;;
18377;Laerm;9315;52.624;13.544;2024-01-30T05:45:54;70.76;55.04;80.62;;
18377;Laerm;9315;52.624;13.544;2024-01-30T05:48:21;68.74;55.44;75.71;;
18377;Laerm;9315;52.624;13.544;2024-01-30T05:50:49;69.39;54.06;79.12;;
18377;Laerm;9315;52.624;13.544;2024-01-30T05:53:16;69.77;53.64;78.43;;
18377;Laerm;9315;52.624;13.544;2024-01-30T05:55:44;70.59;54.64;81.16;;
18377;Laerm;9315;52.624;13.544;2024-01-30T05:58:11;70.78;55.36;80.40;;
18377;Laerm;9315;52.624;13.544;2024-01-30T06:00:39;69.77;57.44;82.12;;
18377;Laerm;9315;52.624;13.544;2024-01-30T06:03:07;70.97;54.77;84.12;;
18377;Laerm;9315;52.624;13.544;2024-01-30T06:05:36;69.23;54.92;76.98;;
18377;Laerm;9315;52.624;13.544;2024-01-30T06:08:04;71.87;55.61;78.64;;
18377;Laerm;9315;52.624;13.544;2024-01-30T06:10:31;71.50;55.18;82.00;;
18377;Laerm;9315;52.624;13.544;2024-01-30T06:12:59;68.97;55.77;78.01;;
18377;Laerm;9315;52.624;13.544;2024-01-30T06:15:26;68.34;54.27;77.36;;
18377;Laerm;9315;52.624;13.544;2024-01-30T06:17:54;71.03;55.99;77.30;;
18377;Laerm;9315;52.624;13.544;2024-01-30T06:20:21;70.24;55.34;77.75;;
18377;Laerm;9315;52.624;13.544;2024-01-30T06:22:48;70.38;56.52;78.02;;
18377;Laerm;9315;52.624;13.544;2024-01-30T06:25:16;70.44;55.29;79.19;;
18377;Laerm;9315;52.624;13.544;2024-01-30T06:27:44;71.94;55.69;79.46;;
18377;Laerm;9315;52.624;13.544;2024-01-30T06:30:13;69.83;53.95;77.18;;
18377;Laerm;9315;52.624;13.544;2024-01-30T06:32:41;69.19;55.12;79.70;;
18377;Laerm;9315;52.624;13.544;2024-01-30T06:35:09;70.57;57.77;79.22;;
18377;Laerm;9315;52.624;13.544;2024-01-30T06:37:37;70.10;56.32;78.55;;
18377;Laerm;9315;52.624;13.544;2024-01-30T06:40:06;71.13;57.26;79.37;;
18377;Laerm;9315;52.624;13.544;2024-01-30T06:42:34;69.76;58.87;79.89;;
18377;Laerm;9315;52.624;13.544;2024-01-30T06:45:01;69.02;56.57;77.42;;
18377;Laerm;9315;52.624;13.544;2024-01-30T06:47:29;69.96;56.47;78.87;;
18377;Laerm;9315;52.624;13.544;2024-01-30T06:49:58;70.91;55.99;77.66;;
18377;Laerm;9315;52.624;13.544;2024-01-30T06:52:26;70.47;56.10;79.99;;
18377;Laerm;9315;52.624;13.544;2024-01-30T06:54:54;69.39;54.06;78.30;;
18377;Laerm;9315;52.624;13.544;2024-01-30T06:57:21;67.81;55.46;77.28;;
18377;Laerm;9315;52.624;13.544;2024-01-30T06:59:49;70.80;55.28;78.19;;
18377;Laerm;9315;52.624;13.544;2024-01-30T07:02:16;70.21;55.61;77.12;;
18377;Laerm;9315;52.624;13.544;2024-01-30T07:04:44;69.64;54.67;77.79;;
18377;Laerm;9315;52.624;13.544;2024-01-30T07:07:13;68.12;54.97;76.43;;
18377;Laerm;9315;52.624;13.544;2024-01-30T07:09:42;70.55;55.35;80.94;;
18377;Laerm;9315;52.624;13.544;2024-01-30T07:12:10;69.89;56.87;78.55;;
18377;Laerm;9315;52.624;13.544;2024-01-30T07:14:37;70.30;57.62;77.99;;
18377;Laerm;9315;52.624;13.544;2024-01-30T07:17:05;67.42;54.80;76.27;;
18377;Laerm;9315;52.624;13.544;2024-01-30T07:19:33;70.59;55.66;79.86;;
18377;Laerm;9315;52.624;13.544;2024-01-30T07:22:02;69.56;56.04;79.24;;
18377;Laerm;9315;52.624;13.544;2024-01-30T07:24:29;69.73;56.04;78.88;;
18377;Laerm;9315;52.624;13.544;2024-01-30T07:26:57;69.31;55.84;77.19;;
18377;Laerm;9315;52.624;13.544;2024-01-30T07:29:25;69.55;56.21;76.87;;
18377;Laerm;9315;52.624;13.544;2024-01-30T07:31:52;70.68;56.02;79.28;;
18377;Laerm;9315;52.624;13.544;2024-01-30T07:34:19;69.93;55.79;77.34;;
18377;Laerm;9315;52.624;13.544;2024-01-30T07:36:47;68.04;55.14;77.79;;
18377;Laerm;9315;52.624;13.544;2024-01-30T07:39:15;69.45;54.83;80.69;;
18377;Laerm;9315;52.624;13.544;2024-01-30T07:41:42;68.39;55.53;78.07;;
18377;Laerm;9315;52.624;13.544;2024-01-30T07:44:10;71.36;55.61;78.42;;
18377;Laerm;9315;52.624;13.544;2024-01-30T07:46:37;69.79;56.32;80.29;;
18377;Laerm;9315;52.624;13.544;2024-01-30T07:49:04;69.61;56.26;79.10;;
18377;Laerm;9315;52.624;13.544;2024-01-30T07:51:32;69.34;54.24;78.77;;
18377;Laerm;9315;52.624;13.544;2024-01-30T07:54:00;70.11;54.61;82.27;;
18377;Laerm;9315;52.624;13.544;2024-01-30T07:56:27;70.02;55.09;78.75;;
18377;Laerm;9315;52.624;13.544;2024-01-30T07:58:55;70.24;55.59;78.95;;
18377;Laerm;9315;52.624;13.544;2024-01-30T08:01:22;70.29;57.12;79.61;;
18377;Laerm;9315;52.624;13.544;2024-01-30T08:03:50;69.67;55.11;81.29;;
18377;Laerm;9315;52.624;13.544;2024-01-30T08:06:17;68.48;55.14;77.31;;
18377;Laerm;9315;52.624;13.544;2024-01-30T08:08:45;69.12;53.85;78.95;;
18377;Laerm;9315;52.624;13.544;2024-01-30T08:11:12;68.73;53.72;77.40;;
18377;Laerm;9315;52.624;13.544;2024-01-30T08:13:40;69.98;55.77;79.17;;
18377;Laerm;9315;52.624;13.544;2024-01-30T08:16:07;68.80;53.54;76.63;;
18377;Laerm;9315;52.624;13.544;2024-01-30T08:18:40;69.10;53.97;80.44;;
18377;Laerm;9315;52.624;13.544;2024-01-30T08:21:08;70.22;56.40;77.97;;
18377;Laerm;9315;52.624;13.544;2024-01-30T08:23:38;69.32;53.34;78.15;;
18377;Laerm;9315;52.624;13.544;2024-01-30T08:26:06;69.29;54.61;76.98;;
18377;Laerm;9315;52.624;13.544;2024-01-30T08:28:34;69.46;55.18;76.55;;
18377;Laerm;9315;52.624;13.544;2024-01-30T08:31:01;69.21;53.38;78.40;;
18377;Laerm;9315;52.624;13.544;2024-01-30T08:33:29;70.59;55.19;83.72;;
18377;Laerm;9315;52.624;13.544;2024-01-30T08:35:56;68.08;53.60;75.95;;
18377;Laerm;9315;52.624;13.544;2024-01-30T08:38:24;66.90;53.83;79.86;;
18377;Laerm;9315;52.624;13.544;2024-01-30T08:40:51;69.62;52.30;77.72;;
18377;Laerm;9315;52.624;13.544;2024-01-30T08:43:19;68.43;52.52;76.71;;
18377;Laerm;9315;52.624;13.544;2024-01-30T08:45:46;70.61;56.21;80.33;;
18377;Laerm;9315;52.624;13.544;2024-01-30T08:48:14;69.92;53.22;78.97;;
18377;Laerm;9315;52.624;13.544;2024-01-30T08:50:42;69.76;54.28;79.85;;
18377;Laerm;9315;52.624;13.544;2024-01-30T08:53:12;69.91;53.64;82.43;;
18377;Laerm;9315;52.624;13.544;2024-01-30T08:55:39;66.91;52.48;77.82;;
18377;Laerm;9315;52.624;13.544;2024-01-30T08:58:07;70.46;53.76;80.11;;
18377;Laerm;9315;52.624;13.544;2024-01-30T09:00:35;68.89;52.43;77.64;;
18377;Laerm;9315;52.624;13.544;2024-01-30T09:03:03;68.77;52.72;79.11;;
18377;Laerm;9315;52.624;13.544;2024-01-30T09:05:31;68.05;50.90;75.91;;
18377;Laerm;9315;52.624;13.544;2024-01-30T09:07:59;68.46;51.23;76.65;;
18377;Laerm;9315;52.624;13.544;2024-01-30T09:10:26;68.87;50.46;80.85;;
18377;Laerm;9315;52.624;13.544;2024-01-30T09:12:54;68.67;51.65;80.64;;
18377;Laerm;9315;52.624;13.544;2024-01-30T09:15:22;69.11;51.23;81.35;;
18377;Laerm;9315;52.624;13.544;2024-01-30T09:17:52;69.11;52.51;77.25;;
18377;Laerm;9315;52.624;13.544;2024-01-30T09:20:20;68.32;50.66;77.39;;
18377;Laerm;9315;52.624;13.544;2024-01-30T09:22:49;68.53;52.39;77.49;;
18377;Laerm;9315;52.624;13.544;2024-01-30T09:25:17;69.18;52.84;80.05;;
18377;Laerm;9315;52.624;13.544;2024-01-30T09:27:46;69.65;52.34;78.52;;
18377;Laerm;9315;52.624;13.544;2024-01-30T09:30:14;69.81;51.53;79.18;;
18377;Laerm;9315;52.624;13.544;2024-01-30T09:32:42;69.14;52.09;82.90;;
18377;Laerm;9315;52.624;13.544;2024-01-30T09:35:10;68.94;50.93;76.86;;
18377;Laerm;9315;52.624;13.544;2024-01-30T09:37:38;68.80;50.70;80.48;;
18377;Laerm;9315;52.624;13.544;2024-01-30T09:40:07;69.96;51.59;80.75;;
18377;Laerm;9315;52.624;13.544;2024-01-30T09:42:36;69.72;52.47;79.51;;
18377;Laerm;9315;52.624;13.544;2024-01-30T09:45:05;69.32;50.99;77.28;;
18377;Laerm;9315;52.624;13.544;2024-01-30T09:47:41;70.97;56.09;80.33;;
18377;Laerm;9315;52.624;13.544;2024-01-30T09:50:14;68.88;51.34;78.10;;
18377;Laerm;9315;52.624;13.544;2024-01-30T09:52:44;67.70;50.52;78.55;;
18377;Laerm;9315;52.624;13.544;2024-01-30T09:55:13;67.53;49.85;76.92;;
18377;Laerm;9315;52.624;13.544;2024-01-30T09:57:42;72.15;54.26;83.25;;
18377;Laerm;9315;52.624;13.544;2024-01-30T10:00:11;68.64;52.46;78.29;;
18377;Laerm;9315;52.624;13.544;2024-01-30T10:02:39;69.46;50.71;77.78;;
18377;Laerm;9315;52.624;13.544;2024-01-30T10:05:08;69.62;51.93;80.49;;
18377;Laerm;9315;52.624;13.544;2024-01-30T10:07:36;69.52;52.16;76.51;;
18377;Laerm;9315;52.624;13.544;2024-01-30T10:10:06;70.00;51.86;79.07;;
18377;Laerm;9315;52.624;13.544;2024-01-30T10:12:34;68.95;50.12;78.74;;
18377;Laerm;9315;52.624;13.544;2024-01-30T10:15:01;69.37;50.99;79.40;;
18377;Laerm;9315;52.624;13.544;2024-01-30T10:20:05;68.95;51.06;80.40;;
18377;Laerm;9315;52.624;13.544;2024-01-30T10:22:33;67.68;51.63;79.18;;
18377;Laerm;9315;52.624;13.544;2024-01-30T10:25:01;68.25;50.06;77.22;;
18377;Laerm;9315;52.624;13.544;2024-01-30T10:27:32;69.72;49.50;78.42;;
18377;Laerm;9315;52.624;13.544;2024-01-30T10:29:59;67.96;48.49;78.33;;
18377;Laerm;9315;52.624;13.544;2024-01-30T10:32:27;68.29;50.79;76.40;;
18377;Laerm;9315;52.624;13.544;2024-01-30T10:34:55;68.33;49.76;76.62;;
18377;Laerm;9315;52.624;13.544;2024-01-30T10:37:26;84.24;51.06;109.24;;
18377;Laerm;9315;52.624;13.544;2024-01-30T10:39:54;68.36;51.72;76.84;;
18377;Laerm;9315;52.624;13.544;2024-01-30T10:42:26;68.54;49.71;78.43;;
18377;Laerm;9315;52.624;13.544;2024-01-30T10:45:09;67.73;50.26;76.44;;
18377;Laerm;9315;52.624;13.544;2024-01-30T10:47:37;68.97;50.36;77.08;;
18377;Laerm;9315;52.624;13.544;2024-01-30T10:50:05;69.75;49.39;80.86;;
18377;Laerm;9315;52.624;13.544;2024-01-30T10:52:35;69.40;50.08;78.26;;
18377;Laerm;9315;52.624;13.544;2024-01-30T10:55:04;69.36;50.63;76.92;;
18377;Laerm;9315;52.624;13.544;2024-01-30T10:57:36;69.06;49.37;81.15;;
18377;Laerm;9315;52.624;13.544;2024-01-30T11:00:14;69.27;51.28;80.32;;
18377;Laerm;9315;52.624;13.544;2024-01-30T11:02:45;67.52;51.57;77.68;;
18377;Laerm;9315;52.624;13.544;2024-01-30T11:05:14;69.98;50.33;83.35;;
18377;Laerm;9315;52.624;13.544;2024-01-30T11:07:44;70.07;48.75;79.22;;
18377;Laerm;9315;52.624;13.544;2024-01-30T11:10:12;68.99;50.19;79.83;;
18377;Laerm;9315;52.624;13.544;2024-01-30T11:12:42;68.17;49.56;76.65;;
18377;Laerm;9315;52.624;13.544;2024-01-30T11:15:16;68.82;50.10;80.57;;
18377;Laerm;9315;52.624;13.544;2024-01-30T11:17:51;70.02;49.56;81.34;;
18377;Laerm;9315;52.624;13.544;2024-01-30T11:20:27;69.34;47.78;78.65;;
18377;Laerm;9315;52.624;13.544;2024-01-30T11:22:59;70.09;48.79;85.75;;
18377;Laerm;9315;52.624;13.544;2024-01-30T11:25:32;69.89;49.54;77.47;;
18377;Laerm;9315;52.624;13.544;2024-01-30T11:28:00;69.37;50.79;77.91;;
18377;Laerm;9315;52.624;13.544;2024-01-30T11:30:31;68.37;49.99;78.83;;
18377;Laerm;9315;52.624;13.544;2024-01-30T11:33:06;68.48;49.90;77.39;;
18377;Laerm;9315;52.624;13.544;2024-01-30T11:35:46;66.40;48.58;75.55;;
18377;Laerm;9315;52.624;13.544;2024-01-30T11:38:16;68.18;48.34;76.71;;
18377;Laerm;9315;52.624;13.544;2024-01-30T11:40:44;69.45;50.21;79.51;;
18377;Laerm;9315;52.624;13.544;2024-01-30T11:43:11;68.74;54.62;76.49;;
18377;Laerm;9315;52.624;13.544;2024-01-30T11:45:40;68.00;46.30;78.12;;
18377;Laerm;9315;52.624;13.544;2024-01-30T11:48:08;70.21;50.59;79.92;;
18377;Laerm;9315;52.624;13.544;2024-01-30T11:50:39;69.25;49.56;77.97;;
18377;Laerm;9315;52.624;13.544;2024-01-30T11:53:13;68.85;47.38;76.54;;
18377;Laerm;9315;52.624;13.544;2024-01-30T11:55:40;69.91;49.11;79.91;;
18377;Laerm;9315;52.624;13.544;2024-01-30T11:58:08;67.81;48.93;77.94;;
18377;Laerm;9315;52.624;13.544;2024-01-30T12:00:35;68.89;48.37;79.86;;
18377;Laerm;9315;52.624;13.544;2024-01-30T12:03:03;68.24;47.82;76.41;;
18377;Laerm;9315;52.624;13.544;2024-01-30T12:05:33;68.15;47.54;80.39;;
18377;Laerm;9315;52.624;13.544;2024-01-30T12:08:01;70.19;50.83;80.46;;
18377;Laerm;9315;52.624;13.544;2024-01-30T12:10:29;68.63;50.33;75.83;;
18377;Laerm;9315;52.624;13.544;2024-01-30T12:12:57;70.75;49.76;84.70;;
18377;Laerm;9315;52.624;13.544;2024-01-30T12:15:26;70.24;51.90;78.45;;
18377;Laerm;9315;52.624;13.544;2024-01-30T12:18:05;69.24;52.08;77.71;;
18377;Laerm;9315;52.624;13.544;2024-01-30T12:20:34;67.52;49.64;76.90;;
18377;Laerm;9315;52.624;13.544;2024-01-30T12:23:02;68.99;51.44;80.17;;
18377;Laerm;9315;52.624;13.544;2024-01-30T12:25:30;67.71;47.70;76.98;;
18377;Laerm;9315;52.624;13.544;2024-01-30T12:27:59;68.57;50.82;76.72;;
18377;Laerm;9315;52.624;13.544;2024-01-30T12:30:29;69.67;48.72;82.36;;
18377;Laerm;9315;52.624;13.544;2024-01-30T12:32:57;67.94;48.25;78.64;;
18377;Laerm;9315;52.624;13.544;2024-01-30T12:35:25;69.92;50.53;78.17;;
18377;Laerm;9315;52.624;13.544;2024-01-30T12:37:58;69.22;47.03;76.78;;
18377;Laerm;9315;52.624;13.544;2024-01-30T12:42:55;70.53;49.79;82.27;;
18377;Laerm;9315;52.624;13.544;2024-01-30T12:45:26;68.36;52.69;75.32;;
18377;Laerm;9315;52.624;13.544;2024-01-30T12:47:54;70.14;47.75;77.76;;
18377;Laerm;9315;52.624;13.544;2024-01-30T12:50:23;68.66;48.75;76.20;;
18377;Laerm;9315;52.624;13.544;2024-01-30T12:52:50;69.37;48.66;78.05;;
18377;Laerm;9315;52.624;13.544;2024-01-30T12:55:19;69.08;49.48;78.76;;
18377;Laerm;9315;52.624;13.544;2024-01-30T13:00:15;68.20;50.48;78.55;;
18377;Laerm;9315;52.624;13.544;2024-01-30T13:02:45;68.43;49.31;76.08;;
18377;Laerm;9315;52.624;13.544;2024-01-30T13:05:13;68.92;52.03;77.11;;
18377;Laerm;9315;52.624;13.544;2024-01-30T13:07:42;69.91;50.54;77.76;;
18377;Laerm;9315;52.624;13.544;2024-01-30T13:10:09;69.25;49.72;77.32;;
18377;Laerm;9315;52.624;13.544;2024-01-30T13:12:37;68.89;50.14;77.82;;
18377;Laerm;9315;52.624;13.544;2024-01-30T13:15:06;69.15;50.74;79.60;;
18377;Laerm;9315;52.624;13.544;2024-01-30T13:17:33;69.69;48.33;76.92;;
18377;Laerm;9315;52.624;13.544;2024-01-30T13:20:01;69.86;49.77;77.00;;
18377;Laerm;9315;52.624;13.544;2024-01-30T13:22:37;67.60;49.24;77.26;;
18377;Laerm;9315;52.624;13.544;2024-01-30T13:25:07;71.24;51.95;81.66;;
18377;Laerm;9315;52.624;13.544;2024-01-30T13:27:36;70.79;48.98;78.92;;
18377;Laerm;9315;52.624;13.544;2024-01-30T13:30:07;69.73;51.74;78.66;;
18377;Laerm;9315;52.624;13.544;2024-01-30T13:32:37;69.32;50.77;76.91;;
18377;Laerm;9315;52.624;13.544;2024-01-30T13:35:05;69.80;52.64;77.50;;
18377;Laerm;9315;52.624;13.544;2024-01-30T13:37:34;70.34;51.50;76.84;;
18377;Laerm;9315;52.624;13.544;2024-01-30T13:40:05;69.67;51.60;76.74;;
18377;Laerm;9315;52.624;13.544;2024-01-30T13:42:40;69.33;51.46;76.75;;
18377;Laerm;9315;52.624;13.544;2024-01-30T13:45:07;70.71;49.92;82.63;;
18377;Laerm;9315;52.624;13.544;2024-01-30T13:47:38;71.01;50.46;76.42;;
18377;Laerm;9315;52.624;13.544;2024-01-30T13:50:06;70.20;52.69;80.86;;
18377;Laerm;9315;52.624;13.544;2024-01-30T13:52:34;69.62;50.62;77.82;;
18377;Laerm;9315;52.624;13.544;2024-01-30T13:55:11;69.89;50.41;79.58;;
18377;Laerm;9315;52.624;13.544;2024-01-30T13:57:39;71.85;49.79;85.12;;